sensor_id;sensor_type;location;lat;lon;timestamp;P1;durP1;ratioP1;P2;durP2;ratioP2
10882;SDS011;5494;51.796;10.952;2023-04-01T00:00:52;3.73;;;1.40;;
10882;SDS011;5494;51.796;10.952;2023-04-01T00:03:21;2.53;;;1.30;;
10882;SDS011;5494;51.796;10.952;2023-04-01T00:05:50;3.27;;;1.17;;
10882;SDS011;5494;51.796;10.952;2023-04-01T00:08:19;3.27;;;1.47;;
10882;SDS011;5494;51.796;10.952;2023-04-01T00:10:47;3.83;;;1.07;;
10882;SDS011;5494;51.796;10.952;2023-04-01T00:13:16;2.67;;;0.93;;
10882;SDS011;5494;51.796;10.952;2023-04-01T00:15:44;4.03;;;1.30;;
10882;SDS011;5494;51.796;10.952;2023-04-01T00:18:13;1.67;;;1.07;;
10882;SDS011;5494;51.796;10.952;2023-04-01T00:20:43;3.43;;;1.37;;
10882;SDS011;5494;51.796;10.952;2023-04-01T00:23:12;1.50;;;1.00;;
10882;SDS011;5494;51.796;10.952;2023-04-01T00:25:41;2.83;;;1.20;;
10882;SDS011;5494;51.796;10.952;2023-04-01T00:28:09;2.30;;;1.00;;
10882;SDS011;5494;51.796;10.952;2023-04-01T00:30:38;1.50;;;1.17;;
10882;SDS011;5494;51.796;10.952;2023-04-01T00:33:06;4.07;;;1.40;;
10882;SDS011;5494;51.796;10.952;2023-04-01T00:35:35;3.40;;;1.40;;
10882;SDS011;5494;51.796;10.952;2023-04-01T00:38:04;4.53;;;1.50;;
10882;SDS011;5494;51.796;10.952;2023-04-01T00:40:33;3.87;;;1.33;;
10882;SDS011;5494;51.796;10.952;2023-04-01T00:43:08;4.40;;;1.80;;
10882;SDS011;5494;51.796;10.952;2023-04-01T00:45:42;3.93;;;1.30;;
10882;SDS011;5494;51.796;10.952;2023-04-01T00:48:12;3.93;;;1.27;;
10882;SDS011;5494;51.796;10.952;2023-04-01T00:50:47;4.07;;;1.57;;
10882;SDS011;5494;51.796;10.952;2023-04-01T00:53:22;2.60;;;1.17;;
10882;SDS011;5494;51.796;10.952;2023-04-01T00:55:54;6.17;;;2.03;;
10882;SDS011;5494;51.796;10.952;2023-04-01T00:58:28;3.20;;;1.17;;
10882;SDS011;5494;51.796;10.952;2023-04-01T01:01:04;3.10;;;1.23;;
10882;SDS011;5494;51.796;10.952;2023-04-01T01:03:35;5.23;;;1.47;;
10882;SDS011;5494;51.796;10.952;2023-04-01T01:06:07;2.70;;;0.93;;
10882;SDS011;5494;51.796;10.952;2023-04-01T01:08:53;3.27;;;1.20;;
10882;SDS011;5494;51.796;10.952;2023-04-01T01:11:41;2.77;;;1.07;;
10882;SDS011;5494;51.796;10.952;2023-04-01T01:14:21;3.13;;;1.03;;
10882;SDS011;5494;51.796;10.952;2023-04-01T01:17:08;2.23;;;0.80;;
10882;SDS011;5494;51.796;10.952;2023-04-01T01:20:00;1.77;;;1.00;;
10882;SDS011;5494;51.796;10.952;2023-04-01T01:22:57;4.63;;;1.10;;
10882;SDS011;5494;51.796;10.952;2023-04-01T01:26:04;2.27;;;1.20;;
10882;SDS011;5494;51.796;10.952;2023-04-01T01:29:02;2.20;;;0.97;;
10882;SDS011;5494;51.796;10.952;2023-04-01T01:31:54;1.80;;;1.00;;
10882;SDS011;5494;51.796;10.952;2023-04-01T01:34:32;2.20;;;1.20;;
10882;SDS011;5494;51.796;10.952;2023-04-01T01:37:10;2.17;;;1.00;;
10882;SDS011;5494;51.796;10.952;2023-04-01T01:39:42;2.87;;;1.10;;
10882;SDS011;5494;51.796;10.952;2023-04-01T01:42:16;1.97;;;1.03;;
10882;SDS011;5494;51.796;10.952;2023-04-01T01:44:48;2.33;;;1.30;;
10882;SDS011;5494;51.796;10.952;2023-04-01T01:47:19;2.47;;;1.23;;
10882;SDS011;5494;51.796;10.952;2023-04-01T01:49:50;3.07;;;0.77;;
10882;SDS011;5494;51.796;10.952;2023-04-01T01:52:23;3.27;;;1.10;;
10882;SDS011;5494;51.796;10.952;2023-04-01T01:54:52;3.67;;;1.47;;
10882;SDS011;5494;51.796;10.952;2023-04-01T01:57:28;1.90;;;0.80;;
10882;SDS011;5494;51.796;10.952;2023-04-01T02:00:04;5.00;;;1.30;;
10882;SDS011;5494;51.796;10.952;2023-04-01T02:02:41;2.53;;;1.10;;
10882;SDS011;5494;51.796;10.952;2023-04-01T02:05:14;1.73;;;0.90;;
10882;SDS011;5494;51.796;10.952;2023-04-01T02:07:49;1.27;;;1.10;;
10882;SDS011;5494;51.796;10.952;2023-04-01T02:10:30;2.87;;;0.87;;
10882;SDS011;5494;51.796;10.952;2023-04-01T02:13:05;2.60;;;1.00;;
10882;SDS011;5494;51.796;10.952;2023-04-01T02:15:44;2.37;;;0.93;;
10882;SDS011;5494;51.796;10.952;2023-04-01T02:18:16;2.90;;;1.10;;
10882;SDS011;5494;51.796;10.952;2023-04-01T02:20:46;4.23;;;1.07;;
10882;SDS011;5494;51.796;10.952;2023-04-01T02:23:17;2.07;;;0.90;;
10882;SDS011;5494;51.796;10.952;2023-04-01T02:25:46;2.17;;;1.00;;
10882;SDS011;5494;51.796;10.952;2023-04-01T02:28:15;1.40;;;0.90;;
10882;SDS011;5494;51.796;10.952;2023-04-01T02:30:47;1.97;;;0.70;;
10882;SDS011;5494;51.796;10.952;2023-04-01T02:33:17;2.20;;;0.83;;
10882;SDS011;5494;51.796;10.952;2023-04-01T02:35:48;3.70;;;1.23;;
10882;SDS011;5494;51.796;10.952;2023-04-01T02:38:18;4.63;;;1.00;;
10882;SDS011;5494;51.796;10.952;2023-04-01T02:40:47;2.27;;;1.50;;
10882;SDS011;5494;51.796;10.952;2023-04-01T02:43:18;1.27;;;0.80;;
10882;SDS011;5494;51.796;10.952;2023-04-01T02:45:47;3.20;;;0.87;;
10882;SDS011;5494;51.796;10.952;2023-04-01T02:48:15;2.40;;;1.00;;
10882;SDS011;5494;51.796;10.952;2023-04-01T02:50:43;1.37;;;0.80;;
10882;SDS011;5494;51.796;10.952;2023-04-01T02:53:11;1.20;;;0.97;;
10882;SDS011;5494;51.796;10.952;2023-04-01T02:55:40;2.77;;;0.80;;
10882;SDS011;5494;51.796;10.952;2023-04-01T02:58:08;2.37;;;0.90;;
10882;SDS011;5494;51.796;10.952;2023-04-01T03:00:37;1.57;;;0.70;;
10882;SDS011;5494;51.796;10.952;2023-04-01T03:03:05;2.40;;;0.70;;
10882;SDS011;5494;51.796;10.952;2023-04-01T03:05:35;2.43;;;0.70;;
10882;SDS011;5494;51.796;10.952;2023-04-01T03:08:03;2.30;;;0.87;;
10882;SDS011;5494;51.796;10.952;2023-04-01T03:10:32;2.20;;;0.77;;
10882;SDS011;5494;51.796;10.952;2023-04-01T03:13:02;2.23;;;1.03;;
10882;SDS011;5494;51.796;10.952;2023-04-01T03:15:30;1.40;;;0.80;;
10882;SDS011;5494;51.796;10.952;2023-04-01T03:17:58;1.53;;;0.70;;
10882;SDS011;5494;51.796;10.952;2023-04-01T03:20:26;2.70;;;0.67;;
10882;SDS011;5494;51.796;10.952;2023-04-01T03:22:54;2.03;;;0.70;;
10882;SDS011;5494;51.796;10.952;2023-04-01T03:25:22;2.30;;;0.70;;
10882;SDS011;5494;51.796;10.952;2023-04-01T03:27:50;1.27;;;0.60;;
10882;SDS011;5494;51.796;10.952;2023-04-01T03:30:20;1.90;;;0.70;;
10882;SDS011;5494;51.796;10.952;2023-04-01T03:32:49;3.53;;;1.10;;
10882;SDS011;5494;51.796;10.952;2023-04-01T03:35:17;2.03;;;0.90;;
10882;SDS011;5494;51.796;10.952;2023-04-01T03:37:45;1.70;;;0.73;;
10882;SDS011;5494;51.796;10.952;2023-04-01T03:40:13;2.67;;;0.90;;
10882;SDS011;5494;51.796;10.952;2023-04-01T03:42:41;2.43;;;0.80;;
10882;SDS011;5494;51.796;10.952;2023-04-01T03:45:10;2.00;;;1.00;;
10882;SDS011;5494;51.796;10.952;2023-04-01T03:47:40;2.53;;;0.90;;
10882;SDS011;5494;51.796;10.952;2023-04-01T03:50:08;1.00;;;0.70;;
10882;SDS011;5494;51.796;10.952;2023-04-01T03:52:38;3.10;;;0.80;;
10882;SDS011;5494;51.796;10.952;2023-04-01T03:55:06;1.17;;;0.70;;
10882;SDS011;5494;51.796;10.952;2023-04-01T03:57:37;1.50;;;0.90;;
10882;SDS011;5494;51.796;10.952;2023-04-01T04:00:14;4.07;;;0.90;;
10882;SDS011;5494;51.796;10.952;2023-04-01T04:02:47;2.17;;;1.00;;
10882;SDS011;5494;51.796;10.952;2023-04-01T04:05:20;3.03;;;0.80;;
10882;SDS011;5494;51.796;10.952;2023-04-01T04:07:48;1.53;;;0.70;;
10882;SDS011;5494;51.796;10.952;2023-04-01T04:10:16;2.23;;;1.03;;
10882;SDS011;5494;51.796;10.952;2023-04-01T04:12:44;0.53;;;0.53;;
10882;SDS011;5494;51.796;10.952;2023-04-01T04:15:14;1.27;;;0.70;;
10882;SDS011;5494;51.796;10.952;2023-04-01T04:17:42;1.77;;;0.63;;
10882;SDS011;5494;51.796;10.952;2023-04-01T04:20:14;1.03;;;0.60;;
10882;SDS011;5494;51.796;10.952;2023-04-01T04:22:43;2.37;;;1.20;;
10882;SDS011;5494;51.796;10.952;2023-04-01T04:25:11;1.67;;;0.67;;
10882;SDS011;5494;51.796;10.952;2023-04-01T04:27:39;1.07;;;0.77;;
10882;SDS011;5494;51.796;10.952;2023-04-01T04:30:10;1.10;;;0.70;;
10882;SDS011;5494;51.796;10.952;2023-04-01T04:32:39;2.27;;;0.80;;
10882;SDS011;5494;51.796;10.952;2023-04-01T04:35:09;3.17;;;0.90;;
10882;SDS011;5494;51.796;10.952;2023-04-01T04:37:39;1.00;;;0.70;;
10882;SDS011;5494;51.796;10.952;2023-04-01T04:40:08;0.87;;;0.70;;
10882;SDS011;5494;51.796;10.952;2023-04-01T04:42:36;1.73;;;0.63;;
10882;SDS011;5494;51.796;10.952;2023-04-01T04:45:09;0.97;;;0.60;;
10882;SDS011;5494;51.796;10.952;2023-04-01T04:47:44;1.07;;;0.73;;
10882;SDS011;5494;51.796;10.952;2023-04-01T04:50:12;2.07;;;0.70;;
10882;SDS011;5494;51.796;10.952;2023-04-01T04:52:42;0.83;;;0.63;;
10882;SDS011;5494;51.796;10.952;2023-04-01T04:55:10;1.27;;;0.70;;
10882;SDS011;5494;51.796;10.952;2023-04-01T04:57:43;2.17;;;0.73;;
10882;SDS011;5494;51.796;10.952;2023-04-01T05:00:11;0.60;;;0.50;;
10882;SDS011;5494;51.796;10.952;2023-04-01T05:02:56;2.20;;;0.67;;
10882;SDS011;5494;51.796;10.952;2023-04-01T05:05:24;0.87;;;0.70;;
10882;SDS011;5494;51.796;10.952;2023-04-01T05:07:54;1.37;;;0.83;;
10882;SDS011;5494;51.796;10.952;2023-04-01T05:10:21;2.67;;;1.07;;
10882;SDS011;5494;51.796;10.952;2023-04-01T05:12:52;1.00;;;0.60;;
10882;SDS011;5494;51.796;10.952;2023-04-01T05:15:22;0.73;;;0.60;;
10882;SDS011;5494;51.796;10.952;2023-04-01T05:17:50;2.13;;;0.70;;
10882;SDS011;5494;51.796;10.952;2023-04-01T05:20:18;1.70;;;0.57;;
10882;SDS011;5494;51.796;10.952;2023-04-01T05:22:46;1.83;;;1.00;;
10882;SDS011;5494;51.796;10.952;2023-04-01T05:25:15;0.70;;;0.70;;
10882;SDS011;5494;51.796;10.952;2023-04-01T05:27:43;1.30;;;1.03;;
10882;SDS011;5494;51.796;10.952;2023-04-01T05:30:12;1.17;;;0.67;;
10882;SDS011;5494;51.796;10.952;2023-04-01T05:33:02;1.17;;;0.70;;
10882;SDS011;5494;51.796;10.952;2023-04-01T05:35:30;1.50;;;0.67;;
10882;SDS011;5494;51.796;10.952;2023-04-01T05:37:58;0.87;;;0.57;;
10882;SDS011;5494;51.796;10.952;2023-04-01T05:40:28;3.83;;;0.90;;
10882;SDS011;5494;51.796;10.952;2023-04-01T05:42:56;5.00;;;0.90;;
10882;SDS011;5494;51.796;10.952;2023-04-01T05:45:25;1.37;;;0.90;;
10882;SDS011;5494;51.796;10.952;2023-04-01T05:48:17;0.73;;;0.70;;
10882;SDS011;5494;51.796;10.952;2023-04-01T05:50:44;0.93;;;0.67;;
10882;SDS011;5494;51.796;10.952;2023-04-01T05:53:12;1.50;;;0.60;;
10882;SDS011;5494;51.796;10.952;2023-04-01T05:55:43;2.93;;;0.80;;
10882;SDS011;5494;51.796;10.952;2023-04-01T05:58:12;1.80;;;0.80;;
10882;SDS011;5494;51.796;10.952;2023-04-01T06:00:44;1.13;;;0.60;;
10882;SDS011;5494;51.796;10.952;2023-04-01T06:03:15;1.23;;;0.70;;
10882;SDS011;5494;51.796;10.952;2023-04-01T06:05:43;1.33;;;0.80;;
10882;SDS011;5494;51.796;10.952;2023-04-01T06:08:13;2.70;;;0.70;;
10882;SDS011;5494;51.796;10.952;2023-04-01T06:10:55;1.63;;;0.70;;
10882;SDS011;5494;51.796;10.952;2023-04-01T06:13:47;1.17;;;0.90;;
10882;SDS011;5494;51.796;10.952;2023-04-01T06:16:39;0.97;;;0.60;;
10882;SDS011;5494;51.796;10.952;2023-04-01T06:19:27;4.47;;;0.87;;
10882;SDS011;5494;51.796;10.952;2023-04-01T06:22:17;1.43;;;0.80;;
10882;SDS011;5494;51.796;10.952;2023-04-01T06:25:14;1.53;;;0.90;;
10882;SDS011;5494;51.796;10.952;2023-04-01T06:31:30;1.73;;;0.53;;
10882;SDS011;5494;51.796;10.952;2023-04-01T06:34:31;0.97;;;0.90;;
10882;SDS011;5494;51.796;10.952;2023-04-01T06:37:20;1.80;;;0.70;;
10882;SDS011;5494;51.796;10.952;2023-04-01T06:40:20;1.27;;;0.60;;
10882;SDS011;5494;51.796;10.952;2023-04-01T06:43:12;2.63;;;0.97;;
10882;SDS011;5494;51.796;10.952;2023-04-01T06:46:22;0.73;;;0.50;;
10882;SDS011;5494;51.796;10.952;2023-04-01T06:49:25;1.13;;;0.63;;
10882;SDS011;5494;51.796;10.952;2023-04-01T06:52:31;1.57;;;0.60;;
10882;SDS011;5494;51.796;10.952;2023-04-01T06:55:34;3.30;;;0.93;;
10882;SDS011;5494;51.796;10.952;2023-04-01T06:58:19;1.93;;;0.80;;
10882;SDS011;5494;51.796;10.952;2023-04-01T07:00:52;1.57;;;0.80;;
10882;SDS011;5494;51.796;10.952;2023-04-01T07:03:29;1.10;;;0.70;;
10882;SDS011;5494;51.796;10.952;2023-04-01T07:06:08;2.17;;;0.83;;
10882;SDS011;5494;51.796;10.952;2023-04-01T07:08:51;1.33;;;0.90;;
10882;SDS011;5494;51.796;10.952;2023-04-01T07:11:24;1.37;;;0.90;;
10882;SDS011;5494;51.796;10.952;2023-04-01T07:14:28;0.70;;;0.60;;
10882;SDS011;5494;51.796;10.952;2023-04-01T07:17:02;1.17;;;0.60;;
10882;SDS011;5494;51.796;10.952;2023-04-01T07:19:42;2.23;;;0.60;;
10882;SDS011;5494;51.796;10.952;2023-04-01T07:22:17;1.13;;;0.50;;
10882;SDS011;5494;51.796;10.952;2023-04-01T07:25:03;1.80;;;0.70;;
10882;SDS011;5494;51.796;10.952;2023-04-01T07:27:42;0.53;;;0.53;;
10882;SDS011;5494;51.796;10.952;2023-04-01T07:30:13;1.47;;;0.70;;
10882;SDS011;5494;51.796;10.952;2023-04-01T07:32:45;1.47;;;0.87;;
10882;SDS011;5494;51.796;10.952;2023-04-01T07:35:23;1.40;;;0.70;;
10882;SDS011;5494;51.796;10.952;2023-04-01T07:38:01;1.23;;;0.60;;
10882;SDS011;5494;51.796;10.952;2023-04-01T07:40:45;2.50;;;0.90;;
10882;SDS011;5494;51.796;10.952;2023-04-01T07:43:26;1.30;;;0.63;;
10882;SDS011;5494;51.796;10.952;2023-04-01T07:46:23;1.20;;;0.50;;
10882;SDS011;5494;51.796;10.952;2023-04-01T07:49:14;2.40;;;0.80;;
10882;SDS011;5494;51.796;10.952;2023-04-01T07:51:55;0.83;;;0.50;;
10882;SDS011;5494;51.796;10.952;2023-04-01T07:54:36;0.70;;;0.60;;
10882;SDS011;5494;51.796;10.952;2023-04-01T07:57:18;5.57;;;0.80;;
10882;SDS011;5494;51.796;10.952;2023-04-01T07:59:57;1.50;;;0.60;;
10882;SDS011;5494;51.796;10.952;2023-04-01T08:02:58;3.77;;;0.70;;
10882;SDS011;5494;51.796;10.952;2023-04-01T08:05:49;1.00;;;0.50;;
10882;SDS011;5494;51.796;10.952;2023-04-01T08:08:29;0.93;;;0.50;;
10882;SDS011;5494;51.796;10.952;2023-04-01T08:11:35;1.10;;;1.00;;
10882;SDS011;5494;51.796;10.952;2023-04-01T08:15:03;1.07;;;0.50;;
10882;SDS011;5494;51.796;10.952;2023-04-01T08:18:15;1.67;;;0.60;;
10882;SDS011;5494;51.796;10.952;2023-04-01T08:20:56;1.67;;;1.00;;
10882;SDS011;5494;51.796;10.952;2023-04-01T08:23:30;0.47;;;0.40;;
10882;SDS011;5494;51.796;10.952;2023-04-01T08:26:04;1.20;;;0.70;;
10882;SDS011;5494;51.796;10.952;2023-04-01T08:28:43;2.00;;;0.77;;
10882;SDS011;5494;51.796;10.952;2023-04-01T08:31:23;1.70;;;0.70;;
10882;SDS011;5494;51.796;10.952;2023-04-01T08:34:00;0.40;;;0.37;;
10882;SDS011;5494;51.796;10.952;2023-04-01T08:36:36;0.97;;;0.30;;
10882;SDS011;5494;51.796;10.952;2023-04-01T08:39:14;2.77;;;1.00;;
10882;SDS011;5494;51.796;10.952;2023-04-01T08:42:04;2.13;;;0.80;;
10882;SDS011;5494;51.796;10.952;2023-04-01T08:45:10;1.90;;;0.40;;
10882;SDS011;5494;51.796;10.952;2023-04-01T08:51:29;1.50;;;0.40;;
10882;SDS011;5494;51.796;10.952;2023-04-01T08:54:49;2.07;;;0.60;;
10882;SDS011;5494;51.796;10.952;2023-04-01T09:01:34;1.70;;;0.47;;
10882;SDS011;5494;51.796;10.952;2023-04-01T09:04:49;3.20;;;0.83;;
10882;SDS011;5494;51.796;10.952;2023-04-01T09:07:51;1.10;;;0.60;;
10882;SDS011;5494;51.796;10.952;2023-04-01T09:10:45;1.77;;;0.60;;
10882;SDS011;5494;51.796;10.952;2023-04-01T09:13:59;1.57;;;0.70;;
10882;SDS011;5494;51.796;10.952;2023-04-01T09:17:18;1.30;;;0.37;;
10882;SDS011;5494;51.796;10.952;2023-04-01T09:20:17;0.60;;;0.40;;
10882;SDS011;5494;51.796;10.952;2023-04-01T09:23:21;0.67;;;0.60;;
10882;SDS011;5494;51.796;10.952;2023-04-01T09:26:23;0.23;;;0.23;;
10882;SDS011;5494;51.796;10.952;2023-04-01T09:29:12;0.97;;;0.70;;
10882;SDS011;5494;51.796;10.952;2023-04-01T09:32:09;1.07;;;0.50;;
10882;SDS011;5494;51.796;10.952;2023-04-01T09:35:15;0.40;;;0.37;;
10882;SDS011;5494;51.796;10.952;2023-04-01T09:37:59;0.63;;;0.60;;
10882;SDS011;5494;51.796;10.952;2023-04-01T09:40:54;0.53;;;0.50;;
10882;SDS011;5494;51.796;10.952;2023-04-01T09:43:51;0.60;;;0.40;;
10882;SDS011;5494;51.796;10.952;2023-04-01T09:46:45;0.60;;;0.50;;
10882;SDS011;5494;51.796;10.952;2023-04-01T09:49:36;0.77;;;0.50;;
10882;SDS011;5494;51.796;10.952;2023-04-01T09:52:43;0.60;;;0.50;;
10882;SDS011;5494;51.796;10.952;2023-04-01T09:55:34;1.50;;;0.60;;
10882;SDS011;5494;51.796;10.952;2023-04-01T10:05:42;0.40;;;0.40;;
10882;SDS011;5494;51.796;10.952;2023-04-01T10:12:29;0.67;;;0.50;;
10882;SDS011;5494;51.796;10.952;2023-04-01T10:15:36;0.60;;;0.40;;
10882;SDS011;5494;51.796;10.952;2023-04-01T10:18:52;0.57;;;0.40;;
10882;SDS011;5494;51.796;10.952;2023-04-01T10:21:42;0.43;;;0.40;;
10882;SDS011;5494;51.796;10.952;2023-04-01T10:24:44;1.07;;;0.53;;
10882;SDS011;5494;51.796;10.952;2023-04-01T10:31:22;1.30;;;0.80;;
10882;SDS011;5494;51.796;10.952;2023-04-01T10:34:34;0.50;;;0.50;;
10882;SDS011;5494;51.796;10.952;2023-04-01T10:37:56;0.37;;;0.37;;
10882;SDS011;5494;51.796;10.952;2023-04-01T10:41:24;1.30;;;0.50;;
10882;SDS011;5494;51.796;10.952;2023-04-01T10:45:02;0.80;;;0.40;;
10882;SDS011;5494;51.796;10.952;2023-04-01T10:48:19;1.70;;;0.77;;
10882;SDS011;5494;51.796;10.952;2023-04-01T10:51:28;0.40;;;0.40;;
10882;SDS011;5494;51.796;10.952;2023-04-01T10:58:28;0.50;;;0.40;;
10882;SDS011;5494;51.796;10.952;2023-04-01T11:01:59;0.40;;;0.40;;
10882;SDS011;5494;51.796;10.952;2023-04-01T11:05:40;0.90;;;0.40;;
10882;SDS011;5494;51.796;10.952;2023-04-01T11:08:46;0.63;;;0.50;;
10882;SDS011;5494;51.796;10.952;2023-04-01T11:15:31;0.40;;;0.40;;
10882;SDS011;5494;51.796;10.952;2023-04-01T11:19:01;1.43;;;0.40;;
10882;SDS011;5494;51.796;10.952;2023-04-01T11:22:15;0.63;;;0.50;;
10882;SDS011;5494;51.796;10.952;2023-04-01T11:25:08;1.83;;;0.50;;
10882;SDS011;5494;51.796;10.952;2023-04-01T11:28:19;0.97;;;0.50;;
10882;SDS011;5494;51.796;10.952;2023-04-01T11:31:39;1.30;;;0.50;;
10882;SDS011;5494;51.796;10.952;2023-04-01T11:34:29;1.67;;;0.47;;
10882;SDS011;5494;51.796;10.952;2023-04-01T11:37:20;1.70;;;0.50;;
10882;SDS011;5494;51.796;10.952;2023-04-01T11:40:25;1.90;;;0.57;;
10882;SDS011;5494;51.796;10.952;2023-04-01T11:43:31;2.30;;;0.80;;
10882;SDS011;5494;51.796;10.952;2023-04-01T11:46:40;1.97;;;1.23;;
10882;SDS011;5494;51.796;10.952;2023-04-01T11:49:25;3.17;;;0.50;;
10882;SDS011;5494;51.796;10.952;2023-04-01T11:52:30;0.40;;;0.40;;
10882;SDS011;5494;51.796;10.952;2023-04-01T11:55:24;0.50;;;0.43;;
10882;SDS011;5494;51.796;10.952;2023-04-01T11:58:08;3.80;;;0.60;;
10882;SDS011;5494;51.796;10.952;2023-04-01T12:01:30;0.80;;;0.50;;
10882;SDS011;5494;51.796;10.952;2023-04-01T12:07:19;1.13;;;1.00;;
10882;SDS011;5494;51.796;10.952;2023-04-01T12:10:02;0.63;;;0.43;;
10882;SDS011;5494;51.796;10.952;2023-04-01T12:12:46;1.90;;;0.50;;
10882;SDS011;5494;51.796;10.952;2023-04-01T12:15:29;0.97;;;0.60;;
10882;SDS011;5494;51.796;10.952;2023-04-01T12:18:16;1.13;;;0.70;;
10882;SDS011;5494;51.796;10.952;2023-04-01T12:21:00;0.83;;;0.43;;
10882;SDS011;5494;51.796;10.952;2023-04-01T12:23:49;0.50;;;0.50;;
10882;SDS011;5494;51.796;10.952;2023-04-01T12:26:46;1.47;;;0.60;;
10882;SDS011;5494;51.796;10.952;2023-04-01T12:29:37;1.13;;;0.40;;
10882;SDS011;5494;51.796;10.952;2023-04-01T12:32:25;0.60;;;0.50;;
10882;SDS011;5494;51.796;10.952;2023-04-01T12:35:13;1.47;;;0.80;;
10882;SDS011;5494;51.796;10.952;2023-04-01T12:38:01;1.27;;;0.50;;
10882;SDS011;5494;51.796;10.952;2023-04-01T12:41:00;0.60;;;0.50;;
10882;SDS011;5494;51.796;10.952;2023-04-01T12:43:55;0.70;;;0.50;;
10882;SDS011;5494;51.796;10.952;2023-04-01T12:46:42;0.70;;;0.40;;
10882;SDS011;5494;51.796;10.952;2023-04-01T12:49:59;1.43;;;0.50;;
10882;SDS011;5494;51.796;10.952;2023-04-01T12:52:54;0.97;;;0.40;;
10882;SDS011;5494;51.796;10.952;2023-04-01T12:55:44;0.47;;;0.40;;
10882;SDS011;5494;51.796;10.952;2023-04-01T12:58:23;2.03;;;0.40;;
10882;SDS011;5494;51.796;10.952;2023-04-01T13:07:51;0.20;;;0.20;;
10882;SDS011;5494;51.796;10.952;2023-04-01T13:10:36;0.50;;;0.33;;
10882;SDS011;5494;51.796;10.952;2023-04-01T13:13:28;0.90;;;0.40;;
10882;SDS011;5494;51.796;10.952;2023-04-01T13:16:22;0.47;;;0.30;;
10882;SDS011;5494;51.796;10.952;2023-04-01T13:18:58;0.80;;;0.50;;
10882;SDS011;5494;51.796;10.952;2023-04-01T13:21:38;0.97;;;0.60;;
10882;SDS011;5494;51.796;10.952;2023-04-01T13:24:24;1.07;;;0.43;;
10882;SDS011;5494;51.796;10.952;2023-04-01T13:27:17;1.13;;;0.83;;
10882;SDS011;5494;51.796;10.952;2023-04-01T13:29:58;1.70;;;1.20;;
10882;SDS011;5494;51.796;10.952;2023-04-01T13:32:42;2.47;;;0.80;;
10882;SDS011;5494;51.796;10.952;2023-04-01T13:35:26;2.07;;;1.10;;
10882;SDS011;5494;51.796;10.952;2023-04-01T13:38:12;1.20;;;0.83;;
10882;SDS011;5494;51.796;10.952;2023-04-01T13:41:00;1.70;;;0.70;;
10882;SDS011;5494;51.796;10.952;2023-04-01T13:43:37;1.53;;;0.90;;
10882;SDS011;5494;51.796;10.952;2023-04-01T13:46:23;0.50;;;0.50;;
10882;SDS011;5494;51.796;10.952;2023-04-01T13:49:22;1.37;;;0.70;;
10882;SDS011;5494;51.796;10.952;2023-04-01T13:52:22;0.70;;;0.50;;
10882;SDS011;5494;51.796;10.952;2023-04-01T13:55:17;1.77;;;1.20;;
10882;SDS011;5494;51.796;10.952;2023-04-01T13:58:00;1.73;;;1.00;;
10882;SDS011;5494;51.796;10.952;2023-04-01T14:01:00;1.00;;;0.80;;
10882;SDS011;5494;51.796;10.952;2023-04-01T14:03:43;1.37;;;1.00;;
10882;SDS011;5494;51.796;10.952;2023-04-01T14:06:31;1.63;;;1.17;;
10882;SDS011;5494;51.796;10.952;2023-04-01T14:09:28;0.80;;;0.73;;
10882;SDS011;5494;51.796;10.952;2023-04-01T14:12:26;2.13;;;1.00;;
10882;SDS011;5494;51.796;10.952;2023-04-01T14:21:10;0.77;;;0.60;;
10882;SDS011;5494;51.796;10.952;2023-04-01T14:27:16;0.73;;;0.50;;
10882;SDS011;5494;51.796;10.952;2023-04-01T14:30:23;1.47;;;0.80;;
10882;SDS011;5494;51.796;10.952;2023-04-01T14:33:14;1.67;;;0.70;;
10882;SDS011;5494;51.796;10.952;2023-04-01T14:36:03;0.50;;;0.50;;
10882;SDS011;5494;51.796;10.952;2023-04-01T14:38:59;2.13;;;0.90;;
10882;SDS011;5494;51.796;10.952;2023-04-01T14:41:51;0.77;;;0.73;;
10882;SDS011;5494;51.796;10.952;2023-04-01T14:44:57;2.70;;;0.93;;
10882;SDS011;5494;51.796;10.952;2023-04-01T14:47:56;2.40;;;0.90;;
10882;SDS011;5494;51.796;10.952;2023-04-01T14:50:40;2.50;;;1.20;;
10882;SDS011;5494;51.796;10.952;2023-04-01T14:53:12;2.30;;;1.50;;
10882;SDS011;5494;51.796;10.952;2023-04-01T14:55:55;2.40;;;1.73;;
10882;SDS011;5494;51.796;10.952;2023-04-01T14:58:40;2.43;;;1.77;;
10882;SDS011;5494;51.796;10.952;2023-04-01T15:04:14;2.67;;;1.27;;
10882;SDS011;5494;51.796;10.952;2023-04-01T15:07:30;1.57;;;1.10;;
10882;SDS011;5494;51.796;10.952;2023-04-01T15:10:43;2.17;;;1.50;;
10882;SDS011;5494;51.796;10.952;2023-04-01T15:13:34;2.70;;;1.40;;
10882;SDS011;5494;51.796;10.952;2023-04-01T15:16:25;1.90;;;1.00;;
10882;SDS011;5494;51.796;10.952;2023-04-01T15:19:05;2.60;;;1.20;;
10882;SDS011;5494;51.796;10.952;2023-04-01T15:21:58;1.53;;;1.40;;
10882;SDS011;5494;51.796;10.952;2023-04-01T15:24:47;4.00;;;2.70;;
10882;SDS011;5494;51.796;10.952;2023-04-01T15:27:42;2.40;;;1.80;;
10882;SDS011;5494;51.796;10.952;2023-04-01T15:30:31;1.90;;;1.30;;
10882;SDS011;5494;51.796;10.952;2023-04-01T15:33:15;2.23;;;1.30;;
10882;SDS011;5494;51.796;10.952;2023-04-01T15:36:06;2.23;;;1.30;;
10882;SDS011;5494;51.796;10.952;2023-04-01T15:38:56;3.63;;;1.40;;
10882;SDS011;5494;51.796;10.952;2023-04-01T15:41:40;2.17;;;1.37;;
10882;SDS011;5494;51.796;10.952;2023-04-01T15:44:41;4.13;;;2.00;;
10882;SDS011;5494;51.796;10.952;2023-04-01T15:47:30;3.00;;;1.40;;
10882;SDS011;5494;51.796;10.952;2023-04-01T15:50:32;2.00;;;1.33;;
10882;SDS011;5494;51.796;10.952;2023-04-01T15:53:31;1.80;;;1.50;;
10882;SDS011;5494;51.796;10.952;2023-04-01T15:56:26;2.60;;;1.20;;
10882;SDS011;5494;51.796;10.952;2023-04-01T15:59:13;2.50;;;1.40;;
10882;SDS011;5494;51.796;10.952;2023-04-01T16:02:01;2.20;;;1.40;;
10882;SDS011;5494;51.796;10.952;2023-04-01T16:04:48;1.40;;;1.30;;
10882;SDS011;5494;51.796;10.952;2023-04-01T16:07:30;1.07;;;0.90;;
10882;SDS011;5494;51.796;10.952;2023-04-01T16:10:21;3.60;;;1.60;;
10882;SDS011;5494;51.796;10.952;2023-04-01T16:16:04;3.23;;;2.20;;
10882;SDS011;5494;51.796;10.952;2023-04-01T16:18:50;2.73;;;2.00;;
10882;SDS011;5494;51.796;10.952;2023-04-01T16:21:49;2.97;;;1.60;;
10882;SDS011;5494;51.796;10.952;2023-04-01T16:24:30;2.40;;;1.13;;
10882;SDS011;5494;51.796;10.952;2023-04-01T16:27:06;1.43;;;1.10;;
10882;SDS011;5494;51.796;10.952;2023-04-01T16:29:45;3.03;;;1.33;;
10882;SDS011;5494;51.796;10.952;2023-04-01T16:32:27;3.80;;;1.43;;
10882;SDS011;5494;51.796;10.952;2023-04-01T16:35:13;2.03;;;1.30;;
10882;SDS011;5494;51.796;10.952;2023-04-01T16:38:05;1.50;;;1.00;;
10882;SDS011;5494;51.796;10.952;2023-04-01T16:40:45;1.40;;;1.00;;
10882;SDS011;5494;51.796;10.952;2023-04-01T16:43:26;2.00;;;1.10;;
10882;SDS011;5494;51.796;10.952;2023-04-01T16:49:04;1.80;;;1.47;;
10882;SDS011;5494;51.796;10.952;2023-04-01T16:51:59;2.33;;;2.10;;
10882;SDS011;5494;51.796;10.952;2023-04-01T16:54:44;2.47;;;1.80;;
10882;SDS011;5494;51.796;10.952;2023-04-01T16:57:23;2.60;;;2.33;;
10882;SDS011;5494;51.796;10.952;2023-04-01T17:00:00;3.07;;;2.13;;
10882;SDS011;5494;51.796;10.952;2023-04-01T17:02:45;2.33;;;2.10;;
10882;SDS011;5494;51.796;10.952;2023-04-01T17:05:33;4.30;;;2.77;;
10882;SDS011;5494;51.796;10.952;2023-04-01T17:08:15;3.53;;;2.63;;
10882;SDS011;5494;51.796;10.952;2023-04-01T17:11:02;4.83;;;3.70;;
10882;SDS011;5494;51.796;10.952;2023-04-01T17:13:45;11.37;;;6.67;;
10882;SDS011;5494;51.796;10.952;2023-04-01T17:16:28;11.07;;;7.50;;
10882;SDS011;5494;51.796;10.952;2023-04-01T17:19:21;12.20;;;8.87;;
10882;SDS011;5494;51.796;10.952;2023-04-01T17:22:13;11.83;;;8.27;;
10882;SDS011;5494;51.796;10.952;2023-04-01T17:25:02;15.00;;;9.73;;
10882;SDS011;5494;51.796;10.952;2023-04-01T17:27:57;14.80;;;8.50;;
10882;SDS011;5494;51.796;10.952;2023-04-01T17:30:37;15.37;;;10.07;;